sensor_id;sensor_type;location;lat;lon;timestamp;P1;durP1;ratioP1;P2;durP2;ratioP2
43861;SDS011;29510;52.140;5.034;2024-02-15T00:03:53;13.43;;;6.30;;
43861;SDS011;29510;52.140;5.034;2024-02-15T00:13:53;13.18;;;5.43;;
43861;SDS011;29510;52.140;5.034;2024-02-15T00:23:56;12.00;;;5.75;;
43861;SDS011;29510;52.140;5.034;2024-02-15T00:33:59;12.48;;;6.20;;
43861;SDS011;29510;52.140;5.034;2024-02-15T00:44:02;16.08;;;5.70;;
43861;SDS011;29510;52.140;5.034;2024-02-15T00:54:03;11.70;;;5.30;;
43861;SDS011;29510;52.140;5.034;2024-02-15T01:04:04;11.80;;;5.00;;
43861;SDS011;29510;52.140;5.034;2024-02-15T01:14:05;9.75;;;5.47;;
43861;SDS011;29510;52.140;5.034;2024-02-15T01:24:09;15.48;;;7.15;;
43861;SDS011;29510;52.140;5.034;2024-02-15T01:34:10;12.73;;;7.70;;
43861;SDS011;29510;52.140;5.034;2024-02-15T01:44:11;17.87;;;9.43;;
43861;SDS011;29510;52.140;5.034;2024-02-15T01:54:11;15.82;;;9.18;;
43861;SDS011;29510;52.140;5.034;2024-02-15T02:04:13;19.85;;;10.45;;
43861;SDS011;29510;52.140;5.034;2024-02-15T02:14:14;20.43;;;11.53;;
43861;SDS011;29510;52.140;5.034;2024-02-15T02:24:16;17.00;;;10.95;;
43861;SDS011;29510;52.140;5.034;2024-02-15T02:34:22;18.83;;;11.85;;
43861;SDS011;29510;52.140;5.034;2024-02-15T02:44:22;20.83;;;11.05;;
43861;SDS011;29510;52.140;5.034;2024-02-15T02:54:23;20.83;;;10.45;;
43861;SDS011;29510;52.140;5.034;2024-02-15T03:04:24;16.95;;;9.63;;
43861;SDS011;29510;52.140;5.034;2024-02-15T03:14:24;19.50;;;9.10;;
43861;SDS011;29510;52.140;5.034;2024-02-15T03:24:25;18.45;;;9.25;;
43861;SDS011;29510;52.140;5.034;2024-02-15T03:34:25;18.55;;;9.35;;
43861;SDS011;29510;52.140;5.034;2024-02-15T03:44:26;18.33;;;8.10;;
43861;SDS011;29510;52.140;5.034;2024-02-15T03:54:26;16.23;;;8.77;;
43861;SDS011;29510;52.140;5.034;2024-02-15T04:04:29;16.40;;;8.10;;
43861;SDS011;29510;52.140;5.034;2024-02-15T04:14:32;12.82;;;6.88;;
43861;SDS011;29510;52.140;5.034;2024-02-15T04:24:34;17.15;;;7.65;;
43861;SDS011;29510;52.140;5.034;2024-02-15T04:34:39;18.75;;;7.97;;
43861;SDS011;29510;52.140;5.034;2024-02-15T04:44:40;19.45;;;8.43;;
43861;SDS011;29510;52.140;5.034;2024-02-15T04:54:40;20.70;;;9.00;;
43861;SDS011;29510;52.140;5.034;2024-02-15T05:04:41;16.88;;;8.88;;
43861;SDS011;29510;52.140;5.034;2024-02-15T05:14:42;16.95;;;10.73;;
43861;SDS011;29510;52.140;5.034;2024-02-15T05:24:43;20.20;;;11.38;;
43861;SDS011;29510;52.140;5.034;2024-02-15T05:34:43;21.35;;;12.30;;
43861;SDS011;29510;52.140;5.034;2024-02-15T05:44:44;22.30;;;12.45;;
43861;SDS011;29510;52.140;5.034;2024-02-15T05:54:46;22.48;;;13.52;;
43861;SDS011;29510;52.140;5.034;2024-02-15T06:04:46;24.50;;;14.15;;
43861;SDS011;29510;52.140;5.034;2024-02-15T06:14:47;24.52;;;14.68;;
43861;SDS011;29510;52.140;5.034;2024-02-15T06:24:47;24.60;;;14.50;;
43861;SDS011;29510;52.140;5.034;2024-02-15T06:34:48;22.27;;;14.20;;
43861;SDS011;29510;52.140;5.034;2024-02-15T06:45:07;24.45;;;14.75;;
43861;SDS011;29510;52.140;5.034;2024-02-15T06:55:08;20.65;;;13.45;;
43861;SDS011;29510;52.140;5.034;2024-02-15T07:05:11;19.45;;;13.13;;
43861;SDS011;29510;52.140;5.034;2024-02-15T07:15:12;18.03;;;11.80;;
43861;SDS011;29510;52.140;5.034;2024-02-15T07:25:13;16.85;;;10.60;;
43861;SDS011;29510;52.140;5.034;2024-02-15T07:35:14;15.80;;;9.57;;
43861;SDS011;29510;52.140;5.034;2024-02-15T07:45:17;13.98;;;9.30;;
43861;SDS011;29510;52.140;5.034;2024-02-15T07:55:18;14.60;;;9.23;;
43861;SDS011;29510;52.140;5.034;2024-02-15T08:05:19;12.48;;;8.95;;
43861;SDS011;29510;52.140;5.034;2024-02-15T08:15:20;11.68;;;7.95;;
43861;SDS011;29510;52.140;5.034;2024-02-15T08:25:21;14.20;;;8.70;;
43861;SDS011;29510;52.140;5.034;2024-02-15T08:35:22;13.00;;;7.87;;
43861;SDS011;29510;52.140;5.034;2024-02-15T08:45:24;15.35;;;8.15;;
43861;SDS011;29510;52.140;5.034;2024-02-15T08:55:24;12.50;;;7.38;;
43861;SDS011;29510;52.140;5.034;2024-02-15T09:05:27;13.32;;;7.03;;
43861;SDS011;29510;52.140;5.034;2024-02-15T09:15:27;13.07;;;7.03;;
43861;SDS011;29510;52.140;5.034;2024-02-15T09:25:30;16.48;;;8.05;;
43861;SDS011;29510;52.140;5.034;2024-02-15T09:35:31;14.98;;;6.78;;
43861;SDS011;29510;52.140;5.034;2024-02-15T09:45:32;11.23;;;5.80;;
43861;SDS011;29510;52.140;5.034;2024-02-15T09:55:35;13.80;;;6.20;;
43861;SDS011;29510;52.140;5.034;2024-02-15T10:05:35;15.32;;;6.07;;
43861;SDS011;29510;52.140;5.034;2024-02-15T10:15:39;14.98;;;6.57;;
43861;SDS011;29510;52.140;5.034;2024-02-15T10:25:45;12.45;;;5.80;;
43861;SDS011;29510;52.140;5.034;2024-02-15T10:35:46;16.00;;;6.00;;
43861;SDS011;29510;52.140;5.034;2024-02-15T10:45:46;16.80;;;6.27;;
43861;SDS011;29510;52.140;5.034;2024-02-15T10:56:00;19.90;;;6.95;;
43861;SDS011;29510;52.140;5.034;2024-02-15T11:06:18;15.18;;;7.18;;
43861;SDS011;29510;52.140;5.034;2024-02-15T11:16:40;13.75;;;7.18;;
43861;SDS011;29510;52.140;5.034;2024-02-15T11:26:45;16.50;;;8.52;;
43861;SDS011;29510;52.140;5.034;2024-02-15T11:36:49;16.08;;;8.45;;
43861;SDS011;29510;52.140;5.034;2024-02-15T11:46:52;15.43;;;10.07;;
43861;SDS011;29510;52.140;5.034;2024-02-15T11:56:56;14.63;;;9.52;;
43861;SDS011;29510;52.140;5.034;2024-02-15T12:07:13;18.33;;;10.90;;
43861;SDS011;29510;52.140;5.034;2024-02-15T12:17:34;15.40;;;11.38;;
43861;SDS011;29510;52.140;5.034;2024-02-15T12:27:54;18.90;;;13.02;;
43861;SDS011;29510;52.140;5.034;2024-02-15T12:47:59;13.00;;;9.27;;
43861;SDS011;29510;52.140;5.034;2024-02-15T12:58:05;8.63;;;6.03;;
43861;SDS011;29510;52.140;5.034;2024-02-15T13:08:16;9.48;;;4.78;;
43861;SDS011;29510;52.140;5.034;2024-02-15T13:18:18;9.65;;;3.85;;
43861;SDS011;29510;52.140;5.034;2024-02-15T13:28:19;8.70;;;3.85;;
43861;SDS011;29510;52.140;5.034;2024-02-15T13:38:20;10.77;;;3.20;;
43861;SDS011;29510;52.140;5.034;2024-02-15T13:48:23;6.60;;;3.33;;
43861;SDS011;29510;52.140;5.034;2024-02-15T13:58:24;5.55;;;2.53;;
43861;SDS011;29510;52.140;5.034;2024-02-15T14:08:25;8.25;;;2.75;;
43861;SDS011;29510;52.140;5.034;2024-02-15T14:18:25;6.85;;;2.80;;
43861;SDS011;29510;52.140;5.034;2024-02-15T14:28:28;7.28;;;2.60;;
43861;SDS011;29510;52.140;5.034;2024-02-15T14:38:28;7.55;;;1.85;;
43861;SDS011;29510;52.140;5.034;2024-02-15T14:48:29;4.35;;;1.83;;
43861;SDS011;29510;52.140;5.034;2024-02-15T14:58:31;6.82;;;2.10;;
43861;SDS011;29510;52.140;5.034;2024-02-15T15:08:31;9.43;;;2.50;;
43861;SDS011;29510;52.140;5.034;2024-02-15T15:18:51;5.60;;;2.30;;
43861;SDS011;29510;52.140;5.034;2024-02-15T15:28:55;6.18;;;2.83;;
43861;SDS011;29510;52.140;5.034;2024-02-15T15:38:56;6.20;;;2.33;;
43861;SDS011;29510;52.140;5.034;2024-02-15T15:48:57;5.95;;;2.38;;
43861;SDS011;29510;52.140;5.034;2024-02-15T15:58:58;7.88;;;2.40;;
43861;SDS011;29510;52.140;5.034;2024-02-15T16:08:58;8.40;;;2.50;;
43861;SDS011;29510;52.140;5.034;2024-02-15T16:18:59;8.27;;;2.70;;
43861;SDS011;29510;52.140;5.034;2024-02-15T16:29:02;7.45;;;2.67;;
43861;SDS011;29510;52.140;5.034;2024-02-15T16:39:03;5.90;;;2.67;;
43861;SDS011;29510;52.140;5.034;2024-02-15T16:49:03;7.13;;;2.42;;
43861;SDS011;29510;52.140;5.034;2024-02-15T16:59:05;5.47;;;2.55;;
43861;SDS011;29510;52.140;5.034;2024-02-15T17:09:06;5.93;;;2.83;;
43861;SDS011;29510;52.140;5.034;2024-02-15T17:19:07;7.65;;;2.97;;
43861;SDS011;29510;52.140;5.034;2024-02-15T17:29:09;8.95;;;2.78;;
43861;SDS011;29510;52.140;5.034;2024-02-15T17:39:10;9.13;;;3.95;;
43861;SDS011;29510;52.140;5.034;2024-02-15T17:49:14;14.10;;;5.40;;
43861;SDS011;29510;52.140;5.034;2024-02-15T17:59:15;5.80;;;3.60;;
43861;SDS011;29510;52.140;5.034;2024-02-15T18:09:15;8.80;;;3.47;;
43861;SDS011;29510;52.140;5.034;2024-02-15T18:19:16;6.77;;;3.57;;
43861;SDS011;29510;52.140;5.034;2024-02-15T18:29:19;5.07;;;3.15;;
43861;SDS011;29510;52.140;5.034;2024-02-15T18:39:20;11.68;;;6.53;;
43861;SDS011;29510;52.140;5.034;2024-02-15T18:49:20;8.40;;;4.63;;
43861;SDS011;29510;52.140;5.034;2024-02-15T18:59:21;6.47;;;3.17;;
43861;SDS011;29510;52.140;5.034;2024-02-15T19:09:23;5.53;;;2.72;;
43861;SDS011;29510;52.140;5.034;2024-02-15T19:19:24;7.47;;;3.38;;
43861;SDS011;29510;52.140;5.034;2024-02-15T19:29:26;5.60;;;2.83;;
43861;SDS011;29510;52.140;5.034;2024-02-15T19:39:27;6.35;;;2.65;;
43861;SDS011;29510;52.140;5.034;2024-02-15T19:49:27;4.15;;;2.00;;
43861;SDS011;29510;52.140;5.034;2024-02-15T19:59:28;4.43;;;2.20;;
43861;SDS011;29510;52.140;5.034;2024-02-15T20:09:30;6.68;;;2.30;;
43861;SDS011;29510;52.140;5.034;2024-02-15T20:19:31;5.45;;;2.08;;
43861;SDS011;29510;52.140;5.034;2024-02-15T20:29:32;3.80;;;1.90;;
43861;SDS011;29510;52.140;5.034;2024-02-15T20:39:34;5.25;;;2.35;;
43861;SDS011;29510;52.140;5.034;2024-02-15T20:49:35;3.60;;;2.17;;
43861;SDS011;29510;52.140;5.034;2024-02-15T20:59:35;4.90;;;1.70;;
43861;SDS011;29510;52.140;5.034;2024-02-15T21:09:39;5.07;;;1.70;;
43861;SDS011;29510;52.140;5.034;2024-02-15T21:19:40;4.07;;;1.95;;
43861;SDS011;29510;52.140;5.034;2024-02-15T21:29:42;4.75;;;2.00;;
43861;SDS011;29510;52.140;5.034;2024-02-15T21:39:45;3.70;;;1.98;;
43861;SDS011;29510;52.140;5.034;2024-02-15T21:49:46;4.40;;;1.67;;
43861;SDS011;29510;52.140;5.034;2024-02-15T21:59:47;5.05;;;2.05;;
43861;SDS011;29510;52.140;5.034;2024-02-15T22:09:48;6.00;;;1.90;;
43861;SDS011;29510;52.140;5.034;2024-02-15T22:19:50;4.97;;;1.90;;
43861;SDS011;29510;52.140;5.034;2024-02-15T22:29:51;3.65;;;1.52;;
43861;SDS011;29510;52.140;5.034;2024-02-15T22:39:52;4.55;;;1.95;;
43861;SDS011;29510;52.140;5.034;2024-02-15T22:49:52;6.67;;;2.30;;
43861;SDS011;29510;52.140;5.034;2024-02-15T22:59:53;3.93;;;1.90;;
43861;SDS011;29510;52.140;5.034;2024-02-15T23:09:54;5.03;;;2.35;;
43861;SDS011;29510;52.140;5.034;2024-02-15T23:19:54;4.53;;;2.30;;
43861;SDS011;29510;52.140;5.034;2024-02-15T23:29:56;5.65;;;2.80;;
43861;SDS011;29510;52.140;5.034;2024-02-15T23:39:57;4.65;;;2.33;;
43861;SDS011;29510;52.140;5.034;2024-02-15T23:50:16;6.88;;;2.47;;
